Time;durP1;ratioP1;P1;durP2;ratioP2;P2;SDS_P1;SDS_P2;PMS_P1;PMS_P2;Temp;Humidity;BMP_temperature;BMP_pressure;BME280_temperature;BME280_humidity;BME280_pressure;Samples;Min_cycle;Max_cycle;Signal;HPM_P1;HPM_P2
2023/12/02 00:01:42;;;;;;;;;;;2.30;96.90;;;;;;5086394;28;20563;-69
2023/12/02 00:04:08;;;;;;;;;;;2.30;96.80;;;;;;5096856;28;19986;-69
2023/12/02 00:06:34;;;;;;;;;;;2.30;96.80;;;;;;5100172;28;20377;-69
2023/12/02 00:09:01;;;;;;;;;;;2.30;96.80;;;;;;5086710;28;20401;-69
2023/12/02 00:11:27;;;;;;;;;;;2.30;96.70;;;;;;5106274;28;20032;-68
2023/12/02 00:13:53;;;;;;;;;;;2.30;96.90;;;;;;5097624;28;20612;-68
2023/12/02 00:16:18;;;;;;;;;;;2.30;96.70;;;;;;5097339;28;19994;-69
2023/12/02 00:18:44;;;;;;;;;;;2.30;96.70;;;;;;5105997;28;19912;-69
2023/12/02 00:21:09;;;;;;;;;;;2.30;96.70;;;;;;5097452;28;20275;-69
2023/12/02 00:23:35;;;;;;;;;;;2.30;96.70;;;;;;5097764;28;20375;-69
2023/12/02 00:26:00;;;;;;;;;;;2.30;96.60;;;;;;5097120;28;19912;-69
2023/12/02 00:28:26;;;;;;;;;;;2.30;96.70;;;;;;5103570;28;20050;-69
2023/12/02 00:30:51;;;;;;;;;;;2.30;96.70;;;;;;5094259;28;20098;-69
2023/12/02 00:33:17;;;;;;;;;;;2.30;96.70;;;;;;5106155;28;19937;-69
2023/12/02 00:35:42;;;;;;;;;;;2.30;96.70;;;;;;5105627;28;19912;-68
2023/12/02 00:38:08;;;;;;;;;;;2.30;96.70;;;;;;5078950;28;19919;-69
2023/12/02 00:40:33;;;;;;;;;;;2.30;96.70;;;;;;5087055;28;20001;-69
2023/12/02 00:42:59;;;;;;;;;;;2.30;96.70;;;;;;5096061;28;19958;-69
2023/12/02 00:45:24;;;;;;;;;;;2.30;96.70;;;;;;5098337;28;19908;-69
2023/12/02 00:47:50;;;;;;;;;;;2.30;96.70;;;;;;5105763;28;20253;-69
2023/12/02 00:50:16;;;;;;;;;;;2.30;96.60;;;;;;5090957;28;19912;-69
2023/12/02 00:52:42;;;;;;;;;;;2.30;96.60;;;;;;5105439;28;19912;-68
2023/12/02 00:55:08;;;;;;;;;;;2.20;96.60;;;;;;5104880;28;19919;-69
2023/12/02 00:57:33;;;;;;;;;;;2.20;96.60;;;;;;5093453;28;19930;-69
2023/12/02 00:59:59;;;;;;;;;;;2.30;96.60;;;;;;5089214;28;19972;-69
2023/12/02 01:02:24;;;;;;;;;;;2.20;96.60;;;;;;5097262;28;19907;-69
2023/12/02 01:04:50;;;;;;;;;;;2.20;96.60;;;;;;5078392;28;19988;-69
2023/12/02 01:07:15;;;;;;;;;;;2.20;96.70;;;;;;5092290;28;19919;-69
2023/12/02 01:09:41;;;;;;;;;;;2.20;96.60;;;;;;5100703;28;19935;-68
2023/12/02 01:12:07;;;;;;;;;;;2.30;96.70;;;;;;5104856;28;19950;-69
2023/12/02 01:14:32;;;;;;;;;;;2.20;96.50;;;;;;5105189;28;20689;-68
2023/12/02 01:16:58;;;;;;;;;;;2.20;96.60;;;;;;5104819;28;20662;-68
2023/12/02 01:19:23;;;;;;;;;;;2.30;96.50;;;;;;5086889;28;19920;-69
2023/12/02 01:21:49;;;;;;;;;;;2.20;96.50;;;;;;5105095;28;19916;-69
2023/12/02 01:24:15;;;;;;;;;;;2.20;96.50;;;;;;5104926;28;19999;-68
2023/12/02 01:26:40;;;;;;;;;;;2.20;96.50;;;;;;5096516;28;19911;-69
2023/12/02 01:29:06;;;;;;;;;;;2.20;96.50;;;;;;5096770;28;19923;-69
2023/12/02 01:31:31;;;;;;;;;;;2.20;96.50;;;;;;5079936;28;19908;-68
2023/12/02 01:33:57;;;;;;;;;;;2.20;96.50;;;;;;5087664;28;19916;-69
2023/12/02 01:36:22;;;;;;;;;;;2.20;96.50;;;;;;5104521;28;19931;-68
2023/12/02 01:38:48;;;;;;;;;;;2.20;96.40;;;;;;5088175;28;20624;-69
2023/12/02 01:41:13;;;;;;;;;;;2.20;96.50;;;;;;5069060;28;20388;-69
2023/12/02 01:43:39;;;;;;;;;;;2.20;96.40;;;;;;5104519;28;19911;-69
2023/12/02 01:46:05;;;;;;;;;;;2.20;96.40;;;;;;5103765;28;19923;-68
2023/12/02 01:48:33;;;;;;;;;;;2.20;96.50;;;;;;5096293;28;19931;-69
2023/12/02 01:50:58;;;;;;;;;;;2.20;96.50;;;;;;5096017;28;19912;-69
2023/12/02 01:53:24;;;;;;;;;;;2.20;96.50;;;;;;5099998;28;20405;-69
2023/12/02 01:55:50;;;;;;;;;;;2.20;96.50;;;;;;5094621;28;19989;-69
2023/12/02 01:58:15;;;;;;;;;;;2.20;96.80;;;;;;5094863;28;20416;-69
2023/12/02 02:00:41;;;;;;;;;;;2.20;96.40;;;;;;5084741;28;19912;-69
2023/12/02 02:03:06;;;;;;;;;;;2.20;96.40;;;;;;5103211;28;19981;-69
2023/12/02 02:05:32;;;;;;;;;;;2.20;96.40;;;;;;5096016;28;19950;-69
2023/12/02 02:07:57;;;;;;;;;;;2.20;96.40;;;;;;5084912;28;19998;-69
2023/12/02 02:10:23;;;;;;;;;;;2.20;96.40;;;;;;5088588;28;19970;-69
2023/12/02 02:12:48;;;;;;;;;;;2.10;96.40;;;;;;5104016;28;20303;-69
2023/12/02 02:15:14;;;;;;;;;;;2.20;96.30;;;;;;5065652;28;20003;-69
2023/12/02 02:17:40;;;;;;;;;;;2.20;96.30;;;;;;5092338;28;19943;-69
2023/12/02 02:20:06;;;;;;;;;;;2.20;96.30;;;;;;5093805;28;19973;-69
2023/12/02 02:22:31;;;;;;;;;;;2.20;96.30;;;;;;5093351;28;19943;-69
2023/12/02 02:24:57;;;;;;;;;;;2.20;96.30;;;;;;5080137;28;19916;-69
2023/12/02 02:27:22;;;;;;;;;;;2.10;96.30;;;;;;5095889;28;19927;-69
2023/12/02 02:29:48;;;;;;;;;;;2.20;96.30;;;;;;5090685;28;20374;-69
2023/12/02 02:32:13;;;;;;;;;;;2.10;96.30;;;;;;5087888;28;20513;-69
2023/12/02 02:34:40;;;;;;;;;;;2.20;96.30;;;;;;5085972;28;19935;-69
2023/12/02 02:37:06;;;;;;;;;;;2.10;96.20;;;;;;5085533;28;19919;-69
2023/12/02 02:39:31;;;;;;;;;;;2.20;96.20;;;;;;5096038;28;19912;-69
2023/12/02 02:41:57;;;;;;;;;;;2.20;96.20;;;;;;5103911;28;19912;-69
2023/12/02 02:44:22;;;;;;;;;;;2.20;96.10;;;;;;5104198;28;19945;-69
2023/12/02 02:46:48;;;;;;;;;;;2.20;96.10;;;;;;5096198;28;19923;-69
2023/12/02 02:49:13;;;;;;;;;;;2.20;96.10;;;;;;5103207;28;19912;-69
2023/12/02 02:51:39;;;;;;;;;;;2.10;96.10;;;;;;5088496;28;19947;-69
2023/12/02 02:54:05;;;;;;;;;;;2.10;96.10;;;;;;5107701;28;20684;-69
2023/12/02 02:56:30;;;;;;;;;;;2.10;96.10;;;;;;5103993;28;20015;-69
2023/12/02 02:58:56;;;;;;;;;;;2.10;96.00;;;;;;5101195;28;19908;-69
2023/12/02 03:01:22;;;;;;;;;;;2.10;96.00;;;;;;5096076;28;19912;-69
2023/12/02 03:03:48;;;;;;;;;;;2.10;96.00;;;;;;5103972;28;19912;-69
2023/12/02 03:06:13;;;;;;;;;;;2.10;96.00;;;;;;5098417;28;20256;-69
2023/12/02 03:08:39;;;;;;;;;;;2.10;96.00;;;;;;5107940;28;19912;-69
2023/12/02 03:11:05;;;;;;;;;;;2.10;95.90;;;;;;5090488;28;20655;-69
2023/12/02 03:13:30;;;;;;;;;;;2.10;95.90;;;;;;5107344;28;19920;-69
2023/12/02 03:15:56;;;;;;;;;;;2.10;96.00;;;;;;5088316;28;19922;-69
2023/12/02 03:18:21;;;;;;;;;;;2.10;96.00;;;;;;5103334;28;19952;-69
2023/12/02 03:20:47;;;;;;;;;;;2.10;95.90;;;;;;5086996;28;19922;-69
2023/12/02 03:23:12;;;;;;;;;;;2.10;96.00;;;;;;5106456;28;19915;-69
2023/12/02 03:25:38;;;;;;;;;;;2.10;96.00;;;;;;5098470;28;19911;-69
2023/12/02 03:28:03;;;;;;;;;;;2.10;95.90;;;;;;5106807;28;19994;-69
2023/12/02 03:30:29;;;;;;;;;;;2.10;95.90;;;;;;5092601;28;19908;-69
2023/12/02 03:32:55;;;;;;;;;;;2.10;96.00;;;;;;5084920;28;20116;-69
2023/12/02 03:35:21;;;;;;;;;;;2.10;95.90;;;;;;5107004;28;19950;-69
2023/12/02 03:37:46;;;;;;;;;;;2.10;95.90;;;;;;5091491;28;20367;-69
2023/12/02 03:40:12;;;;;;;;;;;2.10;95.90;;;;;;5097487;28;19943;-69
2023/12/02 03:42:38;;;;;;;;;;;2.10;95.90;;;;;;5082089;28;19918;-69
2023/12/02 03:45:06;;;;;;;;;;;2.00;95.80;;;;;;5103948;28;19916;-69
2023/12/02 03:47:32;;;;;;;;;;;2.10;95.90;;;;;;5082776;28;19942;-69
2023/12/02 03:49:57;;;;;;;;;;;2.10;95.90;;;;;;5095040;28;19919;-69
2023/12/02 03:52:23;;;;;;;;;;;2.10;95.90;;;;;;5106617;28;19960;-69
2023/12/02 03:54:49;;;;;;;;;;;2.10;95.90;;;;;;5071267;28;20277;-69
2023/12/02 03:57:15;;;;;;;;;;;2.10;95.90;;;;;;5082134;28;19912;-69
2023/12/02 03:59:40;;;;;;;;;;;2.10;95.90;;;;;;5085914;28;19916;-69
2023/12/02 04:02:06;;;;;;;;;;;2.00;95.90;;;;;;5103058;28;19912;-69
2023/12/02 04:04:32;;;;;;;;;;;2.10;95.90;;;;;;5106131;28;19991;-69
2023/12/02 04:06:57;;;;;;;;;;;2.10;95.90;;;;;;5088721;28;19935;-69
2023/12/02 04:09:23;;;;;;;;;;;2.10;95.90;;;;;;5084067;28;19916;-69
2023/12/02 04:11:48;;;;;;;;;;;2.10;95.90;;;;;;5094434;28;19916;-69
2023/12/02 04:14:14;;;;;;;;;;;2.10;95.90;;;;;;5096844;28;19919;-69
2023/12/02 04:16:40;;;;;;;;;;;2.10;95.90;;;;;;5099730;28;19919;-69
2023/12/02 04:19:07;;;;;;;;;;;2.00;95.90;;;;;;5103847;28;19947;-69
2023/12/02 04:21:33;;;;;;;;;;;2.10;95.90;;;;;;5106110;28;19912;-69
2023/12/02 04:23:59;;;;;;;;;;;2.00;95.90;;;;;;5097447;28;19923;-69
2023/12/02 04:26:25;;;;;;;;;;;2.00;96.10;;;;;;5104985;27;19907;-69
2023/12/02 04:28:50;;;;;;;;;;;2.10;95.90;;;;;;5089463;28;19912;-69
2023/12/02 04:31:16;;;;;;;;;;;2.10;95.90;;;;;;5091699;28;20372;-69
2023/12/02 04:33:42;;;;;;;;;;;2.00;95.90;;;;;;5105616;28;19916;-69
2023/12/02 04:36:09;;;;;;;;;;;2.10;95.90;;;;;;5086132;28;19947;-69
2023/12/02 04:38:34;;;;;;;;;;;2.00;95.90;;;;;;5099446;28;19931;-69
2023/12/02 04:41:00;;;;;;;;;;;2.00;95.90;;;;;;5104165;28;19989;-68
2023/12/02 04:43:25;;;;;;;;;;;2.00;95.90;;;;;;5089883;28;19912;-69
2023/12/02 04:45:51;;;;;;;;;;;2.00;95.90;;;;;;5105537;28;20263;-69
2023/12/02 04:48:17;;;;;;;;;;;2.00;95.90;;;;;;5096891;28;19939;-69
2023/12/02 04:50:42;;;;;;;;;;;2.00;95.90;;;;;;5105346;28;20023;-69
2023/12/02 04:53:09;;;;;;;;;;;2.00;95.90;;;;;;5086811;28;19916;-69
2023/12/02 04:55:35;;;;;;;;;;;2.00;95.90;;;;;;5077769;28;19917;-69
2023/12/02 04:58:01;;;;;;;;;;;2.00;95.90;;;;;;5107144;27;20381;-69
2023/12/02 05:00:27;;;;;;;;;;;2.00;95.90;;;;;;5086368;28;19956;-69
2023/12/02 05:02:53;;;;;;;;;;;2.00;95.90;;;;;;5094693;28;20313;-69
2023/12/02 05:05:18;;;;;;;;;;;2.00;95.80;;;;;;5101241;28;19920;-69
2023/12/02 05:07:44;;;;;;;;;;;2.00;95.80;;;;;;5091929;28;19965;-69
2023/12/02 05:10:10;;;;;;;;;;;2.00;95.80;;;;;;5102774;28;19912;-69
2023/12/02 05:12:36;;;;;;;;;;;2.00;95.80;;;;;;5069368;28;19913;-69
2023/12/02 05:15:02;;;;;;;;;;;2.00;95.80;;;;;;5098874;28;20279;-69
2023/12/02 05:17:27;;;;;;;;;;;2.00;95.80;;;;;;5088446;28;19920;-69
2023/12/02 05:19:53;;;;;;;;;;;2.00;95.90;;;;;;5105236;28;19943;-69
2023/12/02 05:22:19;;;;;;;;;;;2.00;95.90;;;;;;5104651;28;19911;-69
2023/12/02 05:24:45;;;;;;;;;;;2.00;95.80;;;;;;5104739;28;19912;-69
2023/12/02 05:27:10;;;;;;;;;;;2.00;95.80;;;;;;5102221;28;19912;-69
2023/12/02 05:29:36;;;;;;;;;;;2.00;95.90;;;;;;5086147;28;19919;-69
2023/12/02 05:32:02;;;;;;;;;;;2.00;95.80;;;;;;5093958;28;19947;-69
2023/12/02 05:34:27;;;;;;;;;;;2.00;95.80;;;;;;5104746;28;20661;-69
2023/12/02 05:36:53;;;;;;;;;;;2.00;95.80;;;;;;5104546;28;20639;-69
2023/12/02 05:39:18;;;;;;;;;;;2.00;95.80;;;;;;5104559;28;19912;-69
2023/12/02 05:41:43;;;;;;;;;;;2.00;95.80;;;;;;5096573;28;19927;-69
2023/12/02 05:44:09;;;;;;;;;;;2.00;95.80;;;;;;5104468;28;19919;-69
2023/12/02 05:46:35;;;;;;;;;;;2.00;95.80;;;;;;5099038;28;19915;-69
2023/12/02 05:49:01;;;;;;;;;;;2.00;95.70;;;;;;5101952;28;20352;-69
2023/12/02 05:51:26;;;;;;;;;;;2.00;95.70;;;;;;5095872;28;19915;-69
2023/12/02 05:53:52;;;;;;;;;;;2.00;95.70;;;;;;5096473;28;19915;-69
2023/12/02 05:56:18;;;;;;;;;;;2.00;95.70;;;;;;5078983;28;19966;-69
2023/12/02 05:58:43;;;;;;;;;;;2.00;95.80;;;;;;5091596;28;20270;-69
2023/12/02 06:01:09;;;;;;;;;;;2.00;95.70;;;;;;5102786;28;19966;-69
2023/12/02 06:03:35;;;;;;;;;;;1.90;95.70;;;;;;5104572;28;19960;-69
2023/12/02 06:06:00;;;;;;;;;;;2.00;95.70;;;;;;5095478;28;19930;-69
2023/12/02 06:08:26;;;;;;;;;;;2.00;95.70;;;;;;5100611;28;19908;-69
2023/12/02 06:10:51;;;;;;;;;;;1.90;95.60;;;;;;5092386;28;19908;-69
2023/12/02 06:13:17;;;;;;;;;;;2.00;95.70;;;;;;5104124;28;20325;-69
2023/12/02 06:15:42;;;;;;;;;;;2.00;95.60;;;;;;5095662;28;19970;-69
2023/12/02 06:18:08;;;;;;;;;;;2.00;95.60;;;;;;5094963;28;20020;-69
2023/12/02 06:20:33;;;;;;;;;;;1.90;95.60;;;;;;5081591;28;19936;-69
2023/12/02 06:22:58;;;;;;;;;;;2.00;95.60;;;;;;5083469;28;19912;-69
2023/12/02 06:25:24;;;;;;;;;;;2.00;95.60;;;;;;5085422;28;19912;-69
2023/12/02 06:27:49;;;;;;;;;;;2.00;95.60;;;;;;5108113;28;19958;-69
2023/12/02 06:30:17;;;;;;;;;;;2.00;95.60;;;;;;5092991;28;20000;-69
2023/12/02 06:32:42;;;;;;;;;;;1.90;95.60;;;;;;5107568;28;19912;-69
2023/12/02 06:35:08;;;;;;;;;;;1.90;95.60;;;;;;5079402;28;19916;-69
2023/12/02 06:37:34;;;;;;;;;;;1.90;95.50;;;;;;5088581;28;19916;-69
2023/12/02 06:39:59;;;;;;;;;;;1.90;95.50;;;;;;5106756;28;19912;-69
2023/12/02 06:42:25;;;;;;;;;;;1.90;95.50;;;;;;5106896;28;20754;-69
2023/12/02 06:44:51;;;;;;;;;;;1.90;95.50;;;;;;5106849;28;19911;-69
2023/12/02 06:47:16;;;;;;;;;;;1.90;95.50;;;;;;5107470;28;20539;-69
2023/12/02 06:49:42;;;;;;;;;;;1.90;95.40;;;;;;5108168;28;20025;-69
2023/12/02 06:52:08;;;;;;;;;;;1.90;95.40;;;;;;5070742;28;19993;-69
2023/12/02 06:54:36;;;;;;;;;;;1.90;95.50;;;;;;5101264;28;19927;-69
2023/12/02 06:57:05;;;;;;;;;;;1.90;95.50;;;;;;5091815;28;19955;-69
2023/12/02 06:59:31;;;;;;;;;;;1.90;95.40;;;;;;5099433;28;19912;-69
2023/12/02 07:01:57;;;;;;;;;;;1.90;95.40;;;;;;5083667;28;19918;-69
2023/12/02 07:04:22;;;;;;;;;;;1.90;95.40;;;;;;5089379;28;19926;-69
2023/12/02 07:06:49;;;;;;;;;;;1.90;95.40;;;;;;5107594;28;19912;-69
2023/12/02 07:09:14;;;;;;;;;;;1.90;95.40;;;;;;5099113;28;19993;-69
2023/12/02 07:11:40;;;;;;;;;;;1.90;95.40;;;;;;5101254;28;20569;-69
2023/12/02 07:14:05;;;;;;;;;;;1.90;95.40;;;;;;5103427;28;19954;-69
2023/12/02 07:16:31;;;;;;;;;;;1.90;95.40;;;;;;5100363;28;19991;-69
2023/12/02 07:18:57;;;;;;;;;;;1.90;95.40;;;;;;5107182;28;19950;-69
2023/12/02 07:21:22;;;;;;;;;;;1.90;95.40;;;;;;5071029;28;19915;-69
2023/12/02 07:23:48;;;;;;;;;;;1.90;95.40;;;;;;5103127;28;19911;-69
2023/12/02 07:26:14;;;;;;;;;;;1.90;95.40;;;;;;5106680;28;19915;-69
2023/12/02 07:28:40;;;;;;;;;;;1.90;95.40;;;;;;5101215;28;19944;-69
2023/12/02 07:31:06;;;;;;;;;;;1.90;95.40;;;;;;5098456;28;19947;-69
2023/12/02 07:33:31;;;;;;;;;;;1.90;95.40;;;;;;5073463;28;19923;-69
2023/12/02 07:35:57;;;;;;;;;;;1.90;95.50;;;;;;5098248;28;20336;-69
2023/12/02 07:38:22;;;;;;;;;;;1.90;95.50;;;;;;5098116;28;19912;-69
2023/12/02 07:40:48;;;;;;;;;;;1.90;95.50;;;;;;5105709;28;19915;-69
2023/12/02 07:43:13;;;;;;;;;;;1.90;95.50;;;;;;5095976;28;20454;-69
2023/12/02 07:45:40;;;;;;;;;;;1.90;95.50;;;;;;5099562;27;19994;-69
2023/12/02 07:48:06;;;;;;;;;;;1.90;95.50;;;;;;5098170;28;19952;-69
2023/12/02 07:50:33;;;;;;;;;;;1.90;95.50;;;;;;5106901;28;19988;-69
2023/12/02 07:52:58;;;;;;;;;;;1.90;95.50;;;;;;5106273;28;20311;-69
2023/12/02 07:55:24;;;;;;;;;;;1.90;95.50;;;;;;5091938;28;20003;-69
2023/12/02 07:57:49;;;;;;;;;;;1.90;95.50;;;;;;5089163;28;19911;-69
2023/12/02 08:00:15;;;;;;;;;;;1.90;95.50;;;;;;5096984;28;20053;-69
2023/12/02 08:02:40;;;;;;;;;;;1.90;95.50;;;;;;5100423;28;19912;-69
2023/12/02 08:05:06;;;;;;;;;;;1.90;95.50;;;;;;5077370;28;19920;-69
2023/12/02 08:07:32;;;;;;;;;;;1.90;95.40;;;;;;5101407;28;19908;-69
2023/12/02 08:09:57;;;;;;;;;;;1.90;95.50;;;;;;5101053;27;19912;-69
2023/12/02 08:12:23;;;;;;;;;;;1.90;95.40;;;;;;5081853;28;19919;-69
2023/12/02 08:14:48;;;;;;;;;;;1.90;95.70;;;;;;5079054;28;19931;-69
2023/12/02 08:17:14;;;;;;;;;;;1.90;95.40;;;;;;5105865;28;20359;-69
2023/12/02 08:19:39;;;;;;;;;;;1.90;95.40;;;;;;5105860;28;19983;-69
2023/12/02 08:22:05;;;;;;;;;;;1.90;95.50;;;;;;5078807;28;19912;-69
2023/12/02 08:24:35;;;;;;;;;;;1.90;95.40;;;;;;5093160;28;19964;-69
2023/12/02 08:27:01;;;;;;;;;;;2.00;95.50;;;;;;5085778;28;20079;-69
2023/12/02 08:29:26;;;;;;;;;;;1.90;95.40;;;;;;5094661;28;20446;-69
2023/12/02 08:31:52;;;;;;;;;;;2.00;95.40;;;;;;5094166;28;19912;-69
2023/12/02 08:34:18;;;;;;;;;;;2.00;95.30;;;;;;5086814;28;19924;-69
2023/12/02 08:36:43;;;;;;;;;;;1.90;95.30;;;;;;5105549;28;19983;-69
2023/12/02 08:39:09;;;;;;;;;;;2.00;95.30;;;;;;5086879;28;19918;-69
2023/12/02 08:41:36;;;;;;;;;;;2.00;95.40;;;;;;5087016;28;20299;-69
2023/12/02 08:44:01;;;;;;;;;;;2.00;95.40;;;;;;5104807;28;20607;-69
2023/12/02 08:46:27;;;;;;;;;;;2.00;95.40;;;;;;5078527;28;19964;-69
2023/12/02 08:48:52;;;;;;;;;;;2.00;95.40;;;;;;5105101;28;20311;-69
2023/12/02 08:51:18;;;;;;;;;;;2.00;95.30;;;;;;5075458;28;19919;-69
2023/12/02 08:53:43;;;;;;;;;;;2.00;95.30;;;;;;5099805;28;19920;-69
2023/12/02 08:56:09;;;;;;;;;;;2.00;95.30;;;;;;5097135;28;19908;-69
2023/12/02 08:58:35;;;;;;;;;;;2.00;95.30;;;;;;5101904;28;19908;-69
2023/12/02 09:01:00;;;;;;;;;;;2.00;95.30;;;;;;5101376;28;20513;-69
2023/12/02 09:03:26;;;;;;;;;;;2.00;95.30;;;;;;5078563;28;19911;-69
2023/12/02 09:05:54;;;;;;;;;;;2.00;95.30;;;;;;5091117;27;19931;-69
2023/12/02 09:08:20;;;;;;;;;;;2.10;95.20;;;;;;5100913;28;19908;-69
2023/12/02 09:10:46;;;;;;;;;;;2.10;95.20;;;;;;5099676;28;20557;-69
2023/12/02 09:13:32;;;;;;;;;;;2.10;95.10;;;;;;5078178;28;19927;-69
2023/12/02 09:15:57;;;;;;;;;;;2.10;95.10;;;;;;5089689;28;19943;-69
2023/12/02 09:18:32;;;;;;;;;;;2.10;95.10;;;;;;5104049;28;20603;-69
2023/12/02 09:20:58;;;;;;;;;;;2.10;95.20;;;;;;5104962;28;19999;-69
2023/12/02 09:23:24;;;;;;;;;;;2.10;95.10;;;;;;5101213;28;20003;-69
2023/12/02 09:25:51;;;;;;;;;;;2.10;95.00;;;;;;5073863;28;20006;-69
2023/12/02 09:28:18;;;;;;;;;;;2.10;95.00;;;;;;5102116;28;20360;-69
2023/12/02 09:30:51;;;;;;;;;;;2.10;95.00;;;;;;5093930;28;20748;-69
2023/12/02 09:33:16;;;;;;;;;;;2.10;95.00;;;;;;5104347;28;20268;-69
2023/12/02 09:35:42;;;;;;;;;;;2.10;95.00;;;;;;5098277;28;19912;-69
2023/12/02 09:38:08;;;;;;;;;;;2.10;95.00;;;;;;5102289;28;19912;-69
2023/12/02 09:40:33;;;;;;;;;;;2.10;95.00;;;;;;5104173;28;20007;-69
2023/12/02 09:43:18;;;;;;;;;;;2.10;95.00;;;;;;5076708;28;19908;-69
2023/12/02 09:46:03;;;;;;;;;;;2.10;95.00;;;;;;5085434;28;20417;-69
2023/12/02 09:48:30;;;;;;;;;;;2.10;95.10;;;;;;5080234;28;19911;-69
2023/12/02 09:51:02;;;;;;;;;;;2.10;95.00;;;;;;5095834;28;20313;-69
2023/12/02 09:53:40;;;;;;;;;;;2.10;95.00;;;;;;5084263;28;20011;-69
2023/12/02 09:56:14;;;;;;;;;;;2.20;95.00;;;;;;5084314;28;19912;-69
2023/12/02 09:58:43;;;;;;;;;;;2.10;95.00;;;;;;5072392;28;19918;-69
2023/12/02 10:01:18;;;;;;;;;;;2.10;94.90;;;;;;5096482;28;19989;-69
2023/12/02 10:03:51;;;;;;;;;;;2.20;94.90;;;;;;5090685;28;20007;-69
2023/12/02 10:06:20;;;;;;;;;;;2.10;94.90;;;;;;5100787;28;19931;-69
2023/12/02 10:09:09;;;;;;;;;;;2.20;95.00;;;;;;5102150;28;19912;-69
2023/12/02 10:11:53;;;;;;;;;;;2.20;95.00;;;;;;5066855;28;19966;-69
2023/12/02 10:14:21;;;;;;;;;;;2.20;95.00;;;;;;5101092;28;19920;-69
2023/12/02 10:16:49;;;;;;;;;;;2.20;95.10;;;;;;5110739;28;20310;-69
2023/12/02 10:19:23;;;;;;;;;;;2.20;95.00;;;;;;5101942;28;19916;-69
2023/12/02 10:21:53;;;;;;;;;;;2.20;95.00;;;;;;5102597;28;20356;-69
2023/12/02 10:24:23;;;;;;;;;;;2.20;94.90;;;;;;5091297;28;20386;-69
2023/12/02 10:26:53;;;;;;;;;;;2.10;95.00;;;;;;5087094;28;20522;-69
2023/12/02 10:29:27;;;;;;;;;;;2.10;95.10;;;;;;5074028;28;19912;-69
2023/12/02 10:32:06;;;;;;;;;;;2.20;95.10;;;;;;5102439;28;19966;-71
2023/12/02 10:34:38;;;;;;;;;;;2.10;95.10;;;;;;5110339;28;19922;-71
2023/12/02 10:37:04;;;;;;;;;;;2.10;95.30;;;;;;5110353;28;20437;-71
2023/12/02 10:39:29;;;;;;;;;;;2.10;95.00;;;;;;5075509;28;19915;-71
2023/12/02 10:42:02;;;;;;;;;;;2.20;95.00;;;;;;5110888;28;19908;-71
2023/12/02 10:44:29;;;;;;;;;;;2.10;95.00;;;;;;5086168;28;19912;-71
2023/12/02 10:46:56;;;;;;;;;;;2.20;95.00;;;;;;5095545;28;20437;-71
2023/12/02 10:49:21;;;;;;;;;;;2.20;94.90;;;;;;5101256;28;19908;-71
2023/12/02 10:51:48;;;;;;;;;;;2.20;94.90;;;;;;5111065;28;19919;-71
2023/12/02 10:54:16;;;;;;;;;;;2.30;94.90;;;;;;5108145;28;19919;-71
2023/12/02 10:56:45;;;;;;;;;;;2.20;94.90;;;;;;5078792;28;19918;-71
2023/12/02 10:59:10;;;;;;;;;;;2.20;95.00;;;;;;5103334;28;19919;-71
2023/12/02 11:01:38;;;;;;;;;;;2.30;95.00;;;;;;5100909;28;19912;-71
2023/12/02 11:04:19;;;;;;;;;;;2.20;95.00;;;;;;5108393;28;19922;-71
2023/12/02 11:06:53;;;;;;;;;;;2.30;94.90;;;;;;5110525;28;19923;-71
2023/12/02 11:09:30;;;;;;;;;;;2.20;95.00;;;;;;5090998;28;20019;-71
2023/12/02 11:12:05;;;;;;;;;;;2.30;94.90;;;;;;5105305;28;20253;-71
2023/12/02 11:14:40;;;;;;;;;;;2.30;95.00;;;;;;5083561;28;19916;-71
2023/12/02 11:17:10;;;;;;;;;;;2.30;95.00;;;;;;5098435;28;19912;-71
2023/12/02 11:20:11;;;;;;;;;;;2.20;95.00;;;;;;5088803;28;20320;-71
2023/12/02 11:22:52;;;;;;;;;;;2.30;95.00;;;;;;5075214;28;20002;-71
2023/12/02 11:25:17;;;;;;;;;;;2.30;95.00;;;;;;5079636;28;20430;-71
2023/12/02 11:27:58;;;;;;;;;;;2.30;94.90;;;;;;5107042;28;19912;-71
2023/12/02 11:30:24;;;;;;;;;;;2.30;95.00;;;;;;5094279;28;19923;-71
2023/12/02 11:32:58;;;;;;;;;;;2.20;95.00;;;;;;5107317;28;19916;-71
2023/12/02 11:35:47;;;;;;;;;;;2.30;95.10;;;;;;5106879;28;19927;-71
2023/12/02 11:38:20;;;;;;;;;;;2.30;95.10;;;;;;5094048;28;19919;-71
2023/12/02 11:40:45;;;;;;;;;;;2.30;95.10;;;;;;5086620;28;19975;-71
2023/12/02 11:43:11;;;;;;;;;;;2.30;95.10;;;;;;5094654;28;20317;-71
2023/12/02 11:45:42;;;;;;;;;;;2.30;95.10;;;;;;5099911;28;19915;-71
2023/12/02 11:48:21;;;;;;;;;;;2.30;95.10;;;;;;5106385;28;19970;-71
2023/12/02 11:50:50;;;;;;;;;;;2.30;95.20;;;;;;5080141;28;19981;-71
2023/12/02 11:53:15;;;;;;;;;;;2.30;95.20;;;;;;5105796;28;19914;-71
2023/12/02 11:55:41;;;;;;;;;;;2.20;95.20;;;;;;5079561;28;19912;-71
2023/12/02 11:58:07;;;;;;;;;;;2.30;95.30;;;;;;5102816;28;20002;-71
2023/12/02 12:00:45;;;;;;;;;;;2.30;95.30;;;;;;5098505;28;20524;-71
2023/12/02 12:03:15;;;;;;;;;;;2.30;95.30;;;;;;5105305;28;19920;-71
2023/12/02 12:05:52;;;;;;;;;;;2.30;95.20;;;;;;5081598;28;20027;-71
2023/12/02 12:08:19;;;;;;;;;;;2.30;95.30;;;;;;5103273;28;19988;-71
2023/12/02 12:10:46;;;;;;;;;;;2.30;95.20;;;;;;5105716;28;19994;-71
2023/12/02 12:13:14;;;;;;;;;;;2.30;95.10;;;;;;5096650;28;19924;-71
2023/12/02 12:15:40;;;;;;;;;;;2.30;95.10;;;;;;5097003;28;19918;-71
2023/12/02 12:18:05;;;;;;;;;;;2.30;95.20;;;;;;5069476;28;19909;-71
2023/12/02 12:20:31;;;;;;;;;;;2.30;95.30;;;;;;5105581;28;19930;-71
2023/12/02 12:22:57;;;;;;;;;;;2.30;95.30;;;;;;5105389;28;19908;-71
2023/12/02 12:25:28;;;;;;;;;;;2.30;95.30;;;;;;5094114;28;19934;-71
2023/12/02 12:27:54;;;;;;;;;;;2.30;95.40;;;;;;5066566;28;19985;-71
2023/12/02 12:30:19;;;;;;;;;;;2.30;95.50;;;;;;5083664;28;19909;-69
2023/12/02 12:32:45;;;;;;;;;;;2.30;95.50;;;;;;5109739;27;19919;-69
2023/12/02 12:35:11;;;;;;;;;;;2.30;95.40;;;;;;5086254;28;19915;-69
2023/12/02 12:37:39;;;;;;;;;;;2.30;95.50;;;;;;5105905;28;19912;-69
2023/12/02 12:40:06;;;;;;;;;;;2.30;95.50;;;;;;5104761;28;20352;-69
2023/12/02 12:42:32;;;;;;;;;;;2.30;95.50;;;;;;5079640;28;20487;-68
2023/12/02 12:44:59;;;;;;;;;;;2.30;95.50;;;;;;5113154;27;19963;-69
2023/12/02 12:47:25;;;;;;;;;;;2.30;95.50;;;;;;5105041;28;19956;-69
2023/12/02 12:49:52;;;;;;;;;;;2.30;95.50;;;;;;5097206;28;20010;-69
2023/12/02 12:52:19;;;;;;;;;;;2.30;95.60;;;;;;5088040;28;20049;-69
2023/12/02 12:54:53;;;;;;;;;;;2.40;95.60;;;;;;5105275;28;19927;-69
2023/12/02 12:57:42;;;;;;;;;;;2.40;95.60;;;;;;5079060;28;20261;-69
2023/12/02 13:00:10;;;;;;;;;;;2.40;95.60;;;;;;5071961;28;19911;-69
2023/12/02 13:02:38;;;;;;;;;;;2.40;95.60;;;;;;5102230;28;19912;-69
2023/12/02 13:05:06;;;;;;;;;;;2.40;95.50;;;;;;5104347;28;19923;-69
2023/12/02 13:07:39;;;;;;;;;;;2.40;95.60;;;;;;5097037;28;19908;-69
2023/12/02 13:10:06;;;;;;;;;;;2.40;95.60;;;;;;5105149;28;20412;-69
2023/12/02 13:12:34;;;;;;;;;;;2.40;95.70;;;;;;5080414;28;19927;-69
2023/12/02 13:15:03;;;;;;;;;;;2.40;95.60;;;;;;5104870;28;19961;-69
2023/12/02 13:17:31;;;;;;;;;;;2.40;95.60;;;;;;5088691;28;19919;-69
2023/12/02 13:19:59;;;;;;;;;;;2.40;95.70;;;;;;5105036;28;19907;-69
2023/12/02 13:22:25;;;;;;;;;;;2.40;95.70;;;;;;5103910;28;19908;-69
2023/12/02 13:24:59;;;;;;;;;;;2.40;95.70;;;;;;5095524;28;19919;-69
2023/12/02 13:27:27;;;;;;;;;;;2.40;95.70;;;;;;5103685;28;19915;-69
2023/12/02 13:29:55;;;;;;;;;;;2.40;95.60;;;;;;5092441;28;19928;-69
2023/12/02 13:32:21;;;;;;;;;;;2.50;95.70;;;;;;5103510;28;19916;-69
2023/12/02 13:34:53;;;;;;;;;;;2.50;95.60;;;;;;5084689;28;20256;-69
2023/12/02 13:37:21;;;;;;;;;;;2.50;95.60;;;;;;5103293;28;19912;-69
2023/12/02 13:39:50;;;;;;;;;;;2.50;95.60;;;;;;5103778;28;20684;-69
2023/12/02 13:42:16;;;;;;;;;;;2.40;95.60;;;;;;5084983;28;19918;-69
2023/12/02 13:44:45;;;;;;;;;;;2.50;95.70;;;;;;5103490;28;20003;-69
2023/12/02 13:47:17;;;;;;;;;;;2.50;95.70;;;;;;5101977;28;19918;-69
2023/12/02 13:49:42;;;;;;;;;;;2.50;95.70;;;;;;5108191;27;19920;-69
2023/12/02 13:52:28;;;;;;;;;;;2.50;95.70;;;;;;5091718;28;19912;-68
2023/12/02 13:54:56;;;;;;;;;;;2.40;95.70;;;;;;5104203;28;19966;-69
2023/12/02 13:57:27;;;;;;;;;;;2.50;95.80;;;;;;5093218;28;19918;-68
2023/12/02 13:59:57;;;;;;;;;;;2.40;95.80;;;;;;5089223;28;20089;-68
2023/12/02 14:02:23;;;;;;;;;;;2.40;95.80;;;;;;5057477;28;19923;-69
2023/12/02 14:05:02;;;;;;;;;;;2.40;95.80;;;;;;5107784;27;20313;-69
2023/12/02 14:07:28;;;;;;;;;;;2.40;95.80;;;;;;5104462;28;19911;-68
2023/12/02 14:09:54;;;;;;;;;;;2.40;95.90;;;;;;5104547;28;20019;-69
2023/12/02 14:12:39;;;;;;;;;;;2.40;95.90;;;;;;5103677;28;19961;-69
2023/12/02 14:15:07;;;;;;;;;;;2.40;95.90;;;;;;5095184;28;19916;-69
2023/12/02 14:17:51;;;;;;;;;;;2.40;95.90;;;;;;5103855;28;19919;-69
2023/12/02 14:20:32;;;;;;;;;;;2.40;95.90;;;;;;5103523;28;19907;-68
2023/12/02 14:23:00;;;;;;;;;;;2.40;95.90;;;;;;5096509;28;20021;-68
2023/12/02 14:25:32;;;;;;;;;;;2.40;95.90;;;;;;5092768;28;20436;-69
2023/12/02 14:28:01;;;;;;;;;;;2.40;95.80;;;;;;5087395;28;19913;-69
2023/12/02 14:30:42;;;;;;;;;;;2.40;95.90;;;;;;5086750;28;19909;-68
2023/12/02 14:33:26;;;;;;;;;;;2.40;95.90;;;;;;5099915;27;20396;-68